createdAt,value
2023-04-25T00:03:43.475Z,67.53
2023-04-25T00:08:39.895Z,67.06
2023-04-25T00:13:36.992Z,67.61
2023-04-25T00:18:36.755Z,68.01
2023-04-25T00:23:39.890Z,67.65
2023-04-25T00:28:36.488Z,68.12
2023-04-25T00:33:35.714Z,68.02
2023-04-25T00:38:32.634Z,67.88
2023-04-25T00:43:29.221Z,68.21
2023-04-25T00:48:26.163Z,67.63
2023-04-25T00:53:23.267Z,67.58
2023-04-25T00:58:21.093Z,67.76
2023-04-25T01:03:18.813Z,67.23
2023-04-25T01:08:18.341Z,67.41
2023-04-25T01:13:14.800Z,67.02
2023-04-25T01:18:11.627Z,66.92
2023-04-25T01:23:08.019Z,66.65
2023-04-25T01:28:04.545Z,66.31
2023-04-25T01:33:01.450Z,66.27
2023-04-25T01:38:00.190Z,65.78
2023-04-25T01:42:56.695Z,65.93
2023-04-25T01:47:53.453Z,66.02
2023-04-25T01:52:50.232Z,65.17
2023-04-25T01:57:46.859Z,65.18
2023-04-25T02:02:43.643Z,64.77
2023-04-25T02:07:40.151Z,64.88
2023-04-25T02:12:37.011Z,64.66
2023-04-25T02:17:33.541Z,64.80
2023-04-25T02:22:31.392Z,64.55
2023-04-25T02:27:27.928Z,64.59
2023-04-25T02:32:26.789Z,64.21
2023-04-25T02:37:24.219Z,64.10
2023-04-25T02:42:20.707Z,63.79
2023-04-25T02:47:17.291Z,63.88
2023-04-25T02:52:13.934Z,63.43
2023-04-25T02:57:10.509Z,63.64
2023-04-25T03:02:07.161Z,63.15
2023-04-25T03:07:03.628Z,62.91
2023-04-25T03:12:00.148Z,62.29
2023-04-25T03:16:56.786Z,62.19
2023-04-25T03:21:56.790Z,62.19
2023-04-25T03:26:53.383Z,61.49
2023-04-25T03:31:50.034Z,61.60
2023-04-25T03:44:10.418Z,60.87
2023-04-25T03:49:07.074Z,60.69
2023-04-25T03:54:03.579Z,60.57
2023-04-25T03:59:00.193Z,60.22
2023-04-25T04:03:57.149Z,60.20
2023-04-25T04:08:57.395Z,60.25
2023-04-25T04:14:07.667Z,59.76
2023-04-25T04:19:13.425Z,59.38
2023-04-25T04:24:17.414Z,59.08
2023-04-25T04:29:57.668Z,59.12
2023-04-25T04:34:58.078Z,59.29
2023-04-25T04:39:54.632Z,59.17
2023-04-25T06:14:29.569Z,58.20
2023-04-25T08:29:22.317Z,55.01
2023-04-25T14:44:04.892Z,49.45
2023-04-25T14:49:01.901Z,49.02
2023-04-25T14:53:59.035Z,48.31
2023-04-25T15:11:48.915Z,47.16
2023-04-25T15:16:45.610Z,47.66
2023-04-25T15:21:42.005Z,48.26
2023-04-25T16:04:28.451Z,47.45
2023-04-25T18:05:24.387Z,53.91
2023-04-25T18:10:21.183Z,53.97
2023-04-25T18:15:18.218Z,54.04
2023-04-25T18:20:15.769Z,54.18
2023-04-25T18:25:13.776Z,53.91
2023-04-25T18:30:11.393Z,54.40
2023-04-25T18:35:11.308Z,54.38
2023-04-25T19:50:54.951Z,56.14
2023-04-25T19:55:56.805Z,56.09
2023-04-25T20:00:55.924Z,56.36
2023-04-25T20:05:58.266Z,56.18
2023-04-25T20:10:57.686Z,56.75
2023-04-25T20:15:54.231Z,56.60
2023-04-25T20:20:51.713Z,56.33
2023-04-25T20:25:48.495Z,56.57
2023-04-25T20:30:46.241Z,56.78
2023-04-25T20:35:42.756Z,57.08
2023-04-25T20:40:39.214Z,56.84
2023-04-25T20:45:37.455Z,57.25
2023-04-25T20:50:34.200Z,57.27
2023-04-25T20:55:30.857Z,57.01
2023-04-25T21:00:29.118Z,57.66
2023-04-25T21:05:25.670Z,57.33
2023-04-25T21:10:22.219Z,57.77
2023-04-25T21:15:21.167Z,57.63
2023-04-25T21:20:21.719Z,57.90
2023-04-25T21:25:20.574Z,57.86
2023-04-25T21:30:23.379Z,58.33
2023-04-25T21:35:21.774Z,58.64
2023-04-25T21:40:18.288Z,58.71
2023-04-25T21:45:14.771Z,58.86
2023-04-25T21:50:11.342Z,58.94
2023-04-25T21:55:09.474Z,59.24
2023-04-25T22:00:19.987Z,59.15
2023-04-25T22:05:23.200Z,59.33
2023-04-25T22:10:21.426Z,59.15
2023-04-25T22:15:19.402Z,59.28
2023-04-25T22:20:16.036Z,59.83
2023-04-25T22:25:12.582Z,59.72
2023-04-25T22:30:10.929Z,60.26
2023-04-25T22:35:07.979Z,60.42
2023-04-25T22:40:10.301Z,59.81
2023-04-25T22:45:08.195Z,60.27
2023-04-25T22:50:07.740Z,60.53
2023-04-25T22:55:04.707Z,60.25
2023-04-25T23:00:01.624Z,59.96
2023-04-25T23:05:00.022Z,60.15
2023-04-25T23:09:56.722Z,60.69
2023-04-25T23:14:53.615Z,60.58
2023-04-25T23:19:50.313Z,60.56
2023-04-25T23:24:49.206Z,60.74
2023-04-25T23:29:54.471Z,60.88
2023-04-25T23:34:51.123Z,60.81
2023-04-25T23:39:50.459Z,61.22
2023-04-25T23:44:47.004Z,61.26
2023-04-25T23:49:43.868Z,61.46
2023-04-25T23:54:40.427Z,61.54
2023-04-25T23:59:36.912Z,61.20
